createdAt,value
2022-09-02T00:02:36.469Z,12.00
2022-09-02T00:07:38.947Z,11.90
2022-09-02T00:12:41.532Z,11.90
2022-09-02T00:17:44.103Z,12.00
2022-09-02T00:22:46.652Z,11.90
2022-09-02T00:27:49.793Z,11.70
2022-09-02T00:32:52.418Z,11.50
2022-09-02T00:37:54.930Z,11.40
2022-09-02T00:42:57.677Z,11.60
2022-09-02T00:48:00.371Z,11.80
2022-09-02T00:53:11.515Z,11.70
2022-09-02T00:58:22.545Z,11.50
2022-09-02T01:03:28.040Z,11.20
2022-09-02T01:08:34.736Z,11.10
2022-09-02T01:13:42.114Z,10.80
2022-09-02T01:18:49.867Z,10.80
2022-09-02T01:23:53.954Z,10.60
2022-09-02T01:28:56.920Z,10.50
2022-09-02T01:33:59.682Z,10.40
2022-09-02T01:39:02.142Z,10.30
2022-09-02T01:44:06.659Z,10.20
2022-09-02T01:49:09.554Z,9.90
2022-09-02T01:54:12.809Z,9.80
2022-09-02T01:59:18.109Z,9.70
2022-09-02T02:04:22.892Z,9.80
2022-09-02T02:09:27.166Z,9.60
2022-09-02T02:14:30.749Z,9.50
2022-09-02T02:19:35.822Z,9.30
2022-09-02T02:24:39.424Z,9.20
2022-09-02T02:29:42.028Z,9.20
2022-09-02T02:34:45.907Z,9.30
2022-09-02T02:39:48.562Z,9.20
2022-09-02T02:44:51.872Z,8.80
2022-09-02T02:49:54.660Z,9.00
2022-09-02T02:54:57.479Z,8.90
2022-09-02T03:00:14.230Z,8.80
2022-09-02T03:05:18.121Z,8.80
2022-09-02T03:10:23.519Z,8.70
2022-09-02T03:15:27.339Z,8.70
2022-09-02T03:20:31.314Z,8.60
2022-09-02T03:25:38.041Z,8.60
2022-09-02T03:30:50.733Z,8.50
2022-09-02T03:35:54.320Z,8.40
2022-09-02T03:40:56.878Z,8.50
2022-09-02T03:46:00.561Z,8.40
2022-09-02T03:51:03.898Z,8.20
2022-09-02T03:56:15.489Z,8.10
2022-09-02T04:01:21.972Z,8.00
2022-09-02T04:06:26.217Z,7.80
2022-09-02T04:11:34.251Z,7.70
2022-09-02T04:16:37.291Z,8.10
2022-09-02T04:21:42.880Z,8.80
2022-09-02T04:26:46.675Z,9.30
2022-09-02T04:31:52.845Z,9.70
2022-09-02T04:36:56.289Z,10.20
2022-09-02T04:41:59.347Z,10.50
2022-09-02T04:47:02.487Z,11.00
2022-09-02T04:52:05.360Z,11.60
2022-09-02T04:57:09.185Z,12.10
2022-09-02T05:02:13.629Z,12.70
2022-09-02T05:07:16.962Z,13.10
2022-09-02T05:12:22.899Z,13.50
2022-09-02T05:17:35.674Z,13.70
2022-09-02T05:22:38.756Z,13.80
2022-09-02T05:27:42.989Z,13.80
2022-09-02T05:32:46.624Z,13.30
2022-09-02T05:37:50.764Z,12.50
2022-09-02T05:42:53.310Z,12.50
2022-09-02T05:47:55.847Z,12.40
2022-09-02T05:53:02.816Z,12.50
2022-09-02T05:58:05.997Z,12.70
2022-09-02T06:03:09.374Z,12.90
2022-09-02T06:08:14.172Z,13.10
2022-09-02T06:13:22.738Z,13.30
2022-09-02T06:18:28.279Z,13.60
2022-09-02T06:23:36.310Z,13.70
2022-09-02T06:28:39.220Z,13.90
2022-09-02T06:33:43.527Z,14.00
2022-09-02T06:38:50.705Z,14.10
2022-09-02T06:43:56.958Z,14.40
2022-09-02T06:49:03.108Z,14.60
2022-09-02T06:54:09.157Z,14.80
2022-09-02T06:59:13.774Z,15.00
2022-09-02T07:04:41.839Z,15.20
2022-09-02T07:09:46.667Z,15.30
2022-09-02T07:14:52.803Z,15.40
2022-09-02T07:20:00.511Z,15.70
2022-09-02T07:25:08.562Z,15.90
2022-09-02T07:30:13.903Z,16.00
2022-09-02T07:35:20.433Z,16.10
2022-09-02T07:40:24.516Z,16.10
2022-09-02T07:45:28.601Z,16.20
2022-09-02T07:50:31.149Z,16.20
2022-09-02T07:55:37.818Z,16.30
2022-09-02T08:00:42.931Z,16.30
2022-09-02T08:05:47.268Z,16.40
2022-09-02T08:10:51.446Z,16.60
2022-09-02T08:15:54.470Z,16.60
2022-09-02T08:20:56.977Z,16.70
2022-09-02T08:26:02.897Z,16.70
2022-09-02T08:31:07.550Z,16.70
2022-09-02T08:36:12.019Z,17.10
2022-09-02T08:41:25.196Z,17.10
2022-09-02T08:46:31.600Z,17.20
2022-09-02T08:51:56.599Z,16.80
2022-09-02T08:57:04.157Z,17.10
2022-09-02T09:02:20.359Z,17.30
2022-09-02T09:07:59.780Z,17.20
2022-09-02T09:13:33.106Z,17.50
2022-09-02T09:18:52.061Z,17.50
2022-09-02T09:23:55.730Z,17.70
2022-09-02T09:28:59.773Z,18.00
2022-09-02T09:34:07.834Z,17.70
2022-09-02T09:39:27.426Z,17.30
2022-09-02T09:44:48.179Z,18.10
2022-09-02T09:49:53.139Z,18.60
2022-09-02T09:55:24.832Z,19.20
2022-09-02T10:00:34.457Z,19.70
2022-09-02T10:05:40.525Z,19.70
2022-09-02T10:10:58.247Z,19.30
2022-09-02T10:16:11.544Z,19.20
2022-09-02T10:21:45.207Z,19.10
2022-09-02T10:26:57.505Z,19.00
2022-09-02T10:32:09.327Z,18.20
2022-09-02T10:37:23.346Z,17.80
2022-09-02T10:42:43.626Z,18.20
2022-09-02T10:48:19.580Z,19.00
2022-09-02T10:53:36.349Z,18.70
2022-09-02T10:58:50.396Z,18.20
2022-09-02T11:04:17.041Z,18.00
2022-09-02T11:09:33.492Z,18.50
2022-09-02T11:14:56.584Z,18.80
2022-09-02T11:20:38.825Z,19.00
2022-09-02T11:25:53.251Z,19.20
2022-09-02T11:31:12.592Z,19.00
2022-09-02T11:36:15.484Z,18.70
2022-09-02T11:41:52.676Z,19.10
2022-09-02T11:47:26.383Z,19.20
2022-09-02T11:52:54.184Z,18.90
2022-09-02T11:57:58.483Z,19.30
2022-09-02T12:03:28.501Z,19.70
2022-09-02T12:08:34.495Z,19.70
2022-09-02T12:18:59.346Z,19.90
2022-09-02T12:24:01.877Z,19.90
2022-09-02T12:29:20.509Z,19.70
2022-09-02T12:34:28.706Z,19.80
2022-09-02T12:39:35.602Z,20.00
2022-09-02T12:45:02.501Z,19.60
2022-09-02T12:50:22.348Z,18.70
2022-09-02T12:55:30.756Z,18.50
2022-09-02T13:00:47.486Z,18.90
2022-09-02T13:06:01.438Z,19.00
2022-09-02T13:11:07.474Z,19.20
2022-09-02T13:16:18.605Z,19.10
2022-09-02T13:21:30.129Z,18.90
2022-09-02T13:26:50.213Z,18.00
2022-09-02T13:32:01.409Z,18.00
2022-09-02T13:37:04.014Z,18.60
2022-09-02T13:42:20.028Z,18.80
2022-09-02T13:47:25.947Z,18.70
2022-09-02T13:53:12.441Z,18.90
2022-09-02T13:58:03.766Z,18.90
2022-09-02T14:03:15.164Z,19.00
2022-09-02T14:08:26.837Z,18.90
2022-09-02T14:13:29.560Z,18.90
2022-09-02T14:18:32.670Z,19.00
2022-09-02T14:23:38.771Z,19.00
2022-09-02T14:28:41.444Z,18.90
2022-09-02T14:33:45.870Z,19.00
2022-09-02T14:38:48.643Z,19.00
2022-09-02T14:44:00.466Z,19.10
2022-09-02T14:49:10.942Z,19.10
2022-09-02T14:54:42.964Z,18.70
2022-09-02T14:59:45.617Z,18.90
2022-09-02T15:04:48.375Z,18.50
2022-09-02T15:09:52.679Z,18.20
2022-09-02T15:14:55.657Z,18.30
2022-09-02T15:19:58.634Z,18.30
2022-09-02T15:25:01.992Z,18.30
2022-09-02T15:30:06.246Z,18.10
2022-09-02T15:35:09.244Z,18.10
2022-09-02T15:40:11.881Z,18.10
2022-09-02T15:45:15.602Z,18.10
2022-09-02T15:50:18.210Z,18.10
2022-09-02T15:55:29.422Z,18.10
2022-09-02T16:00:35.039Z,18.00
2022-09-02T16:05:37.936Z,18.00
2022-09-02T16:10:41.309Z,19.90
2022-09-02T16:15:45.395Z,16.30
2022-09-02T16:20:47.986Z,17.60
2022-09-02T16:26:15.033Z,17.60
2022-09-02T16:31:20.546Z,17.40
2022-09-02T16:36:24.854Z,17.20
2022-09-02T16:41:36.899Z,17.00
2022-09-02T16:46:40.782Z,16.90
2022-09-02T16:51:43.355Z,16.90
2022-09-02T16:56:46.072Z,16.60
2022-09-02T17:01:48.770Z,16.40
2022-09-02T17:06:51.367Z,16.10
2022-09-02T17:11:54.477Z,15.70
2022-09-02T17:16:57.112Z,15.40
2022-09-02T17:22:00.018Z,15.10
2022-09-02T17:27:03.201Z,14.80
2022-09-02T17:32:06.169Z,14.50
2022-09-02T17:37:08.658Z,14.30
2022-09-02T17:42:12.380Z,14.00
2022-09-02T17:47:20.303Z,13.50
2022-09-02T17:52:24.756Z,13.20
2022-09-02T17:57:42.451Z,12.60
2022-09-02T18:03:24.280Z,12.10
2022-09-02T18:08:46.292Z,11.50
2022-09-02T18:14:01.094Z,11.10
2022-09-02T18:19:06.680Z,10.90
2022-09-02T18:24:50.675Z,10.90
2022-09-02T18:30:08.631Z,10.80
2022-09-02T18:35:43.421Z,10.60
2022-09-02T18:40:59.996Z,10.50
2022-09-02T18:46:05.319Z,10.30
2022-09-02T18:51:20.296Z,10.10
2022-09-02T18:56:28.814Z,9.90
2022-09-02T19:01:37.029Z,9.90
2022-09-02T19:06:40.453Z,9.50
2022-09-02T19:11:43.204Z,9.00
2022-09-02T19:16:46.168Z,8.80
2022-09-02T19:21:55.215Z,9.10
2022-09-02T19:27:01.896Z,9.10
2022-09-02T19:32:05.338Z,8.80
2022-09-02T19:37:08.508Z,9.00
2022-09-02T19:42:11.064Z,9.40
2022-09-02T19:52:41.745Z,10.10
2022-09-02T19:57:45.768Z,10.20
2022-09-02T20:02:49.911Z,10.40
2022-09-02T20:07:54.987Z,10.40
2022-09-02T20:12:59.099Z,10.50
2022-09-02T20:18:13.339Z,10.40
2022-09-02T20:23:17.769Z,10.40
2022-09-02T20:28:42.670Z,10.50
2022-09-02T20:34:03.776Z,10.60
2022-09-02T20:39:15.424Z,10.50
2022-09-02T20:44:38.110Z,10.60
2022-09-02T20:50:11.293Z,10.50
2022-09-02T20:55:25.836Z,10.10
2022-09-02T21:00:28.526Z,9.90
2022-09-02T21:05:52.442Z,9.60
2022-09-02T21:10:59.086Z,9.80
2022-09-02T21:16:12.019Z,9.90
2022-09-02T21:21:25.035Z,10.20
2022-09-02T21:26:49.124Z,10.30
2022-09-02T21:32:04.884Z,10.20
2022-09-02T21:37:10.077Z,10.20
2022-09-02T21:42:53.832Z,10.10
2022-09-02T21:47:56.944Z,10.20
2022-09-02T21:53:50.084Z,10.30
2022-09-02T21:58:55.603Z,10.20
2022-09-02T22:04:11.257Z,10.20
2022-09-02T22:09:31.950Z,10.30
2022-09-02T22:15:16.910Z,10.20
2022-09-02T22:20:28.979Z,10.20
2022-09-02T22:25:33.854Z,10.20
2022-09-02T22:30:41.553Z,10.20
2022-09-02T22:35:58.679Z,10.20
2022-09-02T22:41:26.387Z,10.20
2022-09-02T22:47:03.910Z,10.20
2022-09-02T22:52:49.503Z,10.20
2022-09-02T22:58:03.867Z,10.10
2022-09-02T23:03:29.154Z,10.10
2022-09-02T23:08:37.081Z,10.10
2022-09-02T23:14:19.363Z,10.10
2022-09-02T23:19:36.167Z,10.00
2022-09-02T23:25:00.854Z,10.00
2022-09-02T23:30:04.336Z,10.00
2022-09-02T23:35:27.860Z,9.90
2022-09-02T23:40:34.111Z,9.80
2022-09-02T23:45:37.018Z,9.70
2022-09-02T23:50:58.283Z,9.70
2022-09-02T23:56:18.488Z,9.60
